sensor_id;sensor_type;location;lat;lon;timestamp;P1;durP1;ratioP1;P2;durP2;ratioP2
8574;SDS011;4325;42.520;27.448;2022-11-02T00:02:24;19.27;;;14.23;;
8574;SDS011;4325;42.520;27.448;2022-11-02T00:04:51;20.73;;;14.20;;
8574;SDS011;4325;42.520;27.448;2022-11-02T00:07:17;18.87;;;14.13;;
8574;SDS011;4325;42.520;27.448;2022-11-02T00:09:44;20.23;;;15.30;;
8574;SDS011;4325;42.520;27.448;2022-11-02T00:12:11;18.97;;;14.43;;
8574;SDS011;4325;42.520;27.448;2022-11-02T00:14:38;26.07;;;15.57;;
8574;SDS011;4325;42.520;27.448;2022-11-02T00:17:06;16.80;;;14.47;;
8574;SDS011;4325;42.520;27.448;2022-11-02T00:19:33;20.20;;;14.07;;
8574;SDS011;4325;42.520;27.448;2022-11-02T00:22:00;23.53;;;14.53;;
8574;SDS011;4325;42.520;27.448;2022-11-02T00:24:27;22.60;;;14.27;;
8574;SDS011;4325;42.520;27.448;2022-11-02T00:26:57;20.80;;;15.47;;
8574;SDS011;4325;42.520;27.448;2022-11-02T00:29:24;21.10;;;14.80;;
8574;SDS011;4325;42.520;27.448;2022-11-02T00:31:51;17.40;;;14.37;;
8574;SDS011;4325;42.520;27.448;2022-11-02T00:34:19;19.73;;;14.27;;
8574;SDS011;4325;42.520;27.448;2022-11-02T00:36:46;22.87;;;13.53;;
8574;SDS011;4325;42.520;27.448;2022-11-02T00:39:13;19.27;;;13.93;;
8574;SDS011;4325;42.520;27.448;2022-11-02T00:41:39;15.60;;;12.57;;
8574;SDS011;4325;42.520;27.448;2022-11-02T00:44:07;15.03;;;12.43;;
8574;SDS011;4325;42.520;27.448;2022-11-02T00:46:34;17.10;;;12.60;;
8574;SDS011;4325;42.520;27.448;2022-11-02T00:49:00;18.57;;;12.73;;
8574;SDS011;4325;42.520;27.448;2022-11-02T00:51:29;13.53;;;11.53;;
8574;SDS011;4325;42.520;27.448;2022-11-02T00:53:55;19.90;;;11.77;;
8574;SDS011;4325;42.520;27.448;2022-11-02T00:56:22;19.30;;;13.20;;
8574;SDS011;4325;42.520;27.448;2022-11-02T00:58:49;15.03;;;11.77;;
8574;SDS011;4325;42.520;27.448;2022-11-02T01:01:16;18.03;;;13.30;;
8574;SDS011;4325;42.520;27.448;2022-11-02T01:03:43;15.77;;;12.20;;
8574;SDS011;4325;42.520;27.448;2022-11-02T01:06:10;19.63;;;12.53;;
8574;SDS011;4325;42.520;27.448;2022-11-02T01:08:40;16.77;;;11.87;;
8574;SDS011;4325;42.520;27.448;2022-11-02T01:11:08;17.27;;;12.43;;
8574;SDS011;4325;42.520;27.448;2022-11-02T01:13:36;15.90;;;11.83;;
8574;SDS011;4325;42.520;27.448;2022-11-02T01:16:03;19.27;;;11.90;;
8574;SDS011;4325;42.520;27.448;2022-11-02T01:18:31;14.90;;;11.17;;
8574;SDS011;4325;42.520;27.448;2022-11-02T01:20:57;14.93;;;12.30;;
8574;SDS011;4325;42.520;27.448;2022-11-02T01:23:25;19.47;;;12.73;;
8574;SDS011;4325;42.520;27.448;2022-11-02T01:25:53;13.73;;;11.57;;
8574;SDS011;4325;42.520;27.448;2022-11-02T01:28:20;16.40;;;11.73;;
8574;SDS011;4325;42.520;27.448;2022-11-02T01:30:46;16.83;;;12.83;;
8574;SDS011;4325;42.520;27.448;2022-11-02T01:33:13;16.57;;;12.43;;
8574;SDS011;4325;42.520;27.448;2022-11-02T01:35:40;20.50;;;14.17;;
8574;SDS011;4325;42.520;27.448;2022-11-02T01:38:07;24.43;;;14.20;;
8574;SDS011;4325;42.520;27.448;2022-11-02T01:40:34;23.27;;;14.37;;
8574;SDS011;4325;42.520;27.448;2022-11-02T01:45:50;25.37;;;13.83;;
8574;SDS011;4325;42.520;27.448;2022-11-02T01:48:25;22.20;;;13.40;;
8574;SDS011;4325;42.520;27.448;2022-11-02T01:50:57;21.03;;;14.30;;
8574;SDS011;4325;42.520;27.448;2022-11-02T01:53:28;23.13;;;13.50;;
8574;SDS011;4325;42.520;27.448;2022-11-02T01:55:55;20.03;;;14.33;;
8574;SDS011;4325;42.520;27.448;2022-11-02T01:58:24;21.83;;;13.37;;
8574;SDS011;4325;42.520;27.448;2022-11-02T02:00:52;17.23;;;12.30;;
8574;SDS011;4325;42.520;27.448;2022-11-02T02:03:20;19.10;;;12.33;;
8574;SDS011;4325;42.520;27.448;2022-11-02T02:05:48;20.63;;;12.23;;
8574;SDS011;4325;42.520;27.448;2022-11-02T02:08:20;15.90;;;11.40;;
8574;SDS011;4325;42.520;27.448;2022-11-02T02:10:50;20.40;;;13.27;;
8574;SDS011;4325;42.520;27.448;2022-11-02T02:13:17;24.90;;;14.30;;
8574;SDS011;4325;42.520;27.448;2022-11-02T02:15:47;48.20;;;16.30;;
8574;SDS011;4325;42.520;27.448;2022-11-02T02:18:21;40.00;;;18.13;;
8574;SDS011;4325;42.520;27.448;2022-11-02T02:20:54;82.30;;;18.27;;
8574;SDS011;4325;42.520;27.448;2022-11-02T02:26:58;100.30;;;21.37;;
8574;SDS011;4325;42.520;27.448;2022-11-02T02:29:33;154.17;;;18.40;;
8574;SDS011;4325;42.520;27.448;2022-11-02T02:32:09;242.73;;;21.90;;
8574;SDS011;4325;42.520;27.448;2022-11-02T02:34:44;45.80;;;20.87;;
8574;SDS011;4325;42.520;27.448;2022-11-02T02:37:17;122.10;;;19.90;;
8574;SDS011;4325;42.520;27.448;2022-11-02T02:39:50;97.07;;;18.30;;
8574;SDS011;4325;42.520;27.448;2022-11-02T02:42:23;102.93;;;19.90;;
8574;SDS011;4325;42.520;27.448;2022-11-02T02:44:59;95.77;;;19.17;;
8574;SDS011;4325;42.520;27.448;2022-11-02T02:47:33;160.17;;;20.40;;
8574;SDS011;4325;42.520;27.448;2022-11-02T02:50:04;99.70;;;18.80;;
8574;SDS011;4325;42.520;27.448;2022-11-02T02:52:36;92.67;;;19.43;;
8574;SDS011;4325;42.520;27.448;2022-11-02T02:55:06;88.30;;;19.73;;
8574;SDS011;4325;42.520;27.448;2022-11-02T02:57:39;144.70;;;19.27;;
8574;SDS011;4325;42.520;27.448;2022-11-02T03:00:12;110.40;;;12.97;;
8574;SDS011;4325;42.520;27.448;2022-11-02T03:02:41;92.17;;;14.03;;
8574;SDS011;4325;42.520;27.448;2022-11-02T03:05:26;66.40;;;15.03;;
8574;SDS011;4325;42.520;27.448;2022-11-02T03:07:55;80.17;;;15.33;;
8574;SDS011;4325;42.520;27.448;2022-11-02T03:10:27;99.30;;;16.50;;
8574;SDS011;4325;42.520;27.448;2022-11-02T03:13:02;54.57;;;12.97;;
8574;SDS011;4325;42.520;27.448;2022-11-02T03:15:45;49.97;;;16.03;;
8574;SDS011;4325;42.520;27.448;2022-11-02T03:18:19;103.20;;;15.77;;
8574;SDS011;4325;42.520;27.448;2022-11-02T03:20:57;62.13;;;16.03;;
8574;SDS011;4325;42.520;27.448;2022-11-02T03:23:32;93.33;;;16.07;;
8574;SDS011;4325;42.520;27.448;2022-11-02T03:26:03;77.77;;;15.97;;
8574;SDS011;4325;42.520;27.448;2022-11-02T03:28:40;63.27;;;16.93;;
8574;SDS011;4325;42.520;27.448;2022-11-02T03:31:17;79.50;;;15.90;;
8574;SDS011;4325;42.520;27.448;2022-11-02T03:33:54;51.03;;;14.57;;
8574;SDS011;4325;42.520;27.448;2022-11-02T03:36:30;74.27;;;14.70;;
8574;SDS011;4325;42.520;27.448;2022-11-02T03:39:00;218.30;;;19.03;;
8574;SDS011;4325;42.520;27.448;2022-11-02T03:41:32;112.20;;;19.13;;
8574;SDS011;4325;42.520;27.448;2022-11-02T03:44:02;139.03;;;18.17;;
8574;SDS011;4325;42.520;27.448;2022-11-02T03:46:35;283.17;;;20.23;;
8574;SDS011;4325;42.520;27.448;2022-11-02T03:49:06;164.43;;;15.30;;
8574;SDS011;4325;42.520;27.448;2022-11-02T03:51:36;151.33;;;16.53;;
8574;SDS011;4325;42.520;27.448;2022-11-02T03:54:07;252.60;;;22.37;;
8574;SDS011;4325;42.520;27.448;2022-11-02T03:56:40;182.70;;;19.37;;
8574;SDS011;4325;42.520;27.448;2022-11-02T03:59:11;101.53;;;18.73;;
8574;SDS011;4325;42.520;27.448;2022-11-02T04:01:39;175.93;;;21.63;;
8574;SDS011;4325;42.520;27.448;2022-11-02T04:04:08;155.10;;;20.27;;
8574;SDS011;4325;42.520;27.448;2022-11-02T04:06:35;249.30;;;23.20;;
8574;SDS011;4325;42.520;27.448;2022-11-02T04:09:03;115.87;;;19.60;;
8574;SDS011;4325;42.520;27.448;2022-11-02T04:11:30;103.50;;;19.67;;
8574;SDS011;4325;42.520;27.448;2022-11-02T04:14:15;129.37;;;20.67;;
8574;SDS011;4325;42.520;27.448;2022-11-02T04:17:01;160.57;;;19.57;;
8574;SDS011;4325;42.520;27.448;2022-11-02T04:19:45;204.73;;;19.70;;
8574;SDS011;4325;42.520;27.448;2022-11-02T04:22:12;81.43;;;16.80;;
8574;SDS011;4325;42.520;27.448;2022-11-02T04:24:56;38.40;;;15.77;;
8574;SDS011;4325;42.520;27.448;2022-11-02T04:27:42;36.67;;;16.37;;
8574;SDS011;4325;42.520;27.448;2022-11-02T04:30:10;36.83;;;15.13;;
8574;SDS011;4325;42.520;27.448;2022-11-02T04:32:40;33.13;;;16.23;;
8574;SDS011;4325;42.520;27.448;2022-11-02T04:35:25;31.07;;;13.93;;
8574;SDS011;4325;42.520;27.448;2022-11-02T04:37:52;36.70;;;14.83;;
8574;SDS011;4325;42.520;27.448;2022-11-02T04:40:36;44.97;;;13.93;;
8574;SDS011;4325;42.520;27.448;2022-11-02T04:43:03;51.03;;;13.57;;
8574;SDS011;4325;42.520;27.448;2022-11-02T04:45:30;77.30;;;15.33;;
8574;SDS011;4325;42.520;27.448;2022-11-02T04:48:01;51.93;;;14.43;;
8574;SDS011;4325;42.520;27.448;2022-11-02T04:50:30;40.00;;;14.50;;
8574;SDS011;4325;42.520;27.448;2022-11-02T04:52:57;45.97;;;15.57;;
8574;SDS011;4325;42.520;27.448;2022-11-02T04:55:24;24.57;;;16.37;;
8574;SDS011;4325;42.520;27.448;2022-11-02T04:57:52;54.47;;;16.17;;
8574;SDS011;4325;42.520;27.448;2022-11-02T05:00:19;25.30;;;15.50;;
8574;SDS011;4325;42.520;27.448;2022-11-02T05:02:46;40.23;;;15.60;;
8574;SDS011;4325;42.520;27.448;2022-11-02T05:05:15;29.00;;;16.40;;
8574;SDS011;4325;42.520;27.448;2022-11-02T05:07:43;29.17;;;16.53;;
8574;SDS011;4325;42.520;27.448;2022-11-02T05:10:10;26.27;;;16.10;;
8574;SDS011;4325;42.520;27.448;2022-11-02T05:12:37;24.73;;;16.97;;
8574;SDS011;4325;42.520;27.448;2022-11-02T05:15:04;23.83;;;16.30;;
8574;SDS011;4325;42.520;27.448;2022-11-02T05:17:31;22.57;;;16.47;;
8574;SDS011;4325;42.520;27.448;2022-11-02T05:19:58;21.30;;;15.90;;
8574;SDS011;4325;42.520;27.448;2022-11-02T05:22:26;22.70;;;15.97;;
8574;SDS011;4325;42.520;27.448;2022-11-02T05:24:53;20.97;;;15.27;;
8574;SDS011;4325;42.520;27.448;2022-11-02T05:27:20;22.77;;;15.80;;
8574;SDS011;4325;42.520;27.448;2022-11-02T05:29:47;19.00;;;14.47;;
8574;SDS011;4325;42.520;27.448;2022-11-02T05:32:14;25.00;;;15.40;;
8574;SDS011;4325;42.520;27.448;2022-11-02T05:34:40;22.80;;;15.80;;
8574;SDS011;4325;42.520;27.448;2022-11-02T05:37:07;21.90;;;15.87;;
8574;SDS011;4325;42.520;27.448;2022-11-02T05:39:36;21.93;;;16.23;;
8574;SDS011;4325;42.520;27.448;2022-11-02T05:42:03;21.43;;;15.73;;
8574;SDS011;4325;42.520;27.448;2022-11-02T05:44:29;20.87;;;16.10;;
8574;SDS011;4325;42.520;27.448;2022-11-02T05:46:56;26.50;;;19.13;;
8574;SDS011;4325;42.520;27.448;2022-11-02T05:49:23;20.93;;;15.90;;
8574;SDS011;4325;42.520;27.448;2022-11-02T05:51:50;22.07;;;15.63;;
8574;SDS011;4325;42.520;27.448;2022-11-02T05:54:17;20.30;;;14.73;;
8574;SDS011;4325;42.520;27.448;2022-11-02T05:56:45;22.73;;;17.00;;
8574;SDS011;4325;42.520;27.448;2022-11-02T05:59:12;32.17;;;18.33;;
8574;SDS011;4325;42.520;27.448;2022-11-02T06:01:39;30.03;;;17.97;;
8574;SDS011;4325;42.520;27.448;2022-11-02T06:04:05;24.60;;;18.90;;
8574;SDS011;4325;42.520;27.448;2022-11-02T06:06:32;22.30;;;17.43;;
8574;SDS011;4325;42.520;27.448;2022-11-02T06:08:59;22.13;;;16.17;;
8574;SDS011;4325;42.520;27.448;2022-11-02T06:11:26;21.33;;;16.10;;
8574;SDS011;4325;42.520;27.448;2022-11-02T06:13:54;19.83;;;14.63;;
8574;SDS011;4325;42.520;27.448;2022-11-02T06:16:21;21.53;;;14.37;;
8574;SDS011;4325;42.520;27.448;2022-11-02T06:18:48;19.10;;;14.37;;
8574;SDS011;4325;42.520;27.448;2022-11-02T06:21:15;22.67;;;12.97;;
8574;SDS011;4325;42.520;27.448;2022-11-02T06:23:41;16.57;;;13.57;;
8574;SDS011;4325;42.520;27.448;2022-11-02T06:26:08;22.53;;;13.80;;
8574;SDS011;4325;42.520;27.448;2022-11-02T06:28:37;21.40;;;13.03;;
8574;SDS011;4325;42.520;27.448;2022-11-02T06:31:05;15.30;;;12.13;;
8574;SDS011;4325;42.520;27.448;2022-11-02T06:33:32;19.37;;;12.90;;
8574;SDS011;4325;42.520;27.448;2022-11-02T06:35:59;16.53;;;12.97;;
8574;SDS011;4325;42.520;27.448;2022-11-02T06:38:25;18.07;;;12.43;;
8574;SDS011;4325;42.520;27.448;2022-11-02T06:40:53;14.50;;;12.33;;
8574;SDS011;4325;42.520;27.448;2022-11-02T06:43:21;19.50;;;12.67;;
8574;SDS011;4325;42.520;27.448;2022-11-02T06:45:49;21.43;;;12.70;;
8574;SDS011;4325;42.520;27.448;2022-11-02T06:48:20;20.60;;;12.57;;
8574;SDS011;4325;42.520;27.448;2022-11-02T06:50:47;21.43;;;14.13;;
8574;SDS011;4325;42.520;27.448;2022-11-02T06:53:14;25.10;;;12.57;;
8574;SDS011;4325;42.520;27.448;2022-11-02T06:55:41;15.90;;;12.63;;
8574;SDS011;4325;42.520;27.448;2022-11-02T06:58:08;17.37;;;11.57;;
8574;SDS011;4325;42.520;27.448;2022-11-02T07:00:35;19.77;;;13.40;;
8574;SDS011;4325;42.520;27.448;2022-11-02T07:03:02;22.07;;;12.40;;
8574;SDS011;4325;42.520;27.448;2022-11-02T07:05:32;20.53;;;11.70;;
8574;SDS011;4325;42.520;27.448;2022-11-02T07:08:00;21.87;;;12.93;;
8574;SDS011;4325;42.520;27.448;2022-11-02T07:10:28;21.10;;;12.70;;
8574;SDS011;4325;42.520;27.448;2022-11-02T07:12:55;16.57;;;11.50;;
8574;SDS011;4325;42.520;27.448;2022-11-02T07:15:24;18.53;;;12.63;;
8574;SDS011;4325;42.520;27.448;2022-11-02T07:17:51;12.80;;;10.73;;
8574;SDS011;4325;42.520;27.448;2022-11-02T07:20:19;14.87;;;12.10;;
8574;SDS011;4325;42.520;27.448;2022-11-02T07:22:52;15.43;;;12.60;;
8574;SDS011;4325;42.520;27.448;2022-11-02T07:25:19;21.43;;;12.77;;
8574;SDS011;4325;42.520;27.448;2022-11-02T07:27:46;23.03;;;12.63;;
8574;SDS011;4325;42.520;27.448;2022-11-02T07:30:13;19.00;;;12.63;;
8574;SDS011;4325;42.520;27.448;2022-11-02T07:32:40;20.00;;;13.00;;
8574;SDS011;4325;42.520;27.448;2022-11-02T07:35:08;20.03;;;12.57;;
8574;SDS011;4325;42.520;27.448;2022-11-02T07:37:36;15.10;;;12.40;;
8574;SDS011;4325;42.520;27.448;2022-11-02T07:40:06;24.33;;;13.43;;
8574;SDS011;4325;42.520;27.448;2022-11-02T07:42:34;14.83;;;12.03;;
8574;SDS011;4325;42.520;27.448;2022-11-02T07:45:01;22.70;;;12.27;;
8574;SDS011;4325;42.520;27.448;2022-11-02T07:47:28;21.97;;;12.63;;
8574;SDS011;4325;42.520;27.448;2022-11-02T07:49:55;16.83;;;12.17;;
8574;SDS011;4325;42.520;27.448;2022-11-02T07:52:23;14.73;;;11.67;;
8574;SDS011;4325;42.520;27.448;2022-11-02T07:54:50;16.33;;;11.77;;
8574;SDS011;4325;42.520;27.448;2022-11-02T07:57:19;22.73;;;13.20;;
8574;SDS011;4325;42.520;27.448;2022-11-02T07:59:46;17.73;;;12.10;;
8574;SDS011;4325;42.520;27.448;2022-11-02T08:02:12;15.97;;;12.13;;
8574;SDS011;4325;42.520;27.448;2022-11-02T08:04:39;16.63;;;11.47;;
8574;SDS011;4325;42.520;27.448;2022-11-02T08:07:06;14.03;;;11.63;;
8574;SDS011;4325;42.520;27.448;2022-11-02T08:09:33;18.37;;;11.90;;
8574;SDS011;4325;42.520;27.448;2022-11-02T08:12:00;12.03;;;10.47;;
8574;SDS011;4325;42.520;27.448;2022-11-02T08:14:28;18.03;;;11.50;;
8574;SDS011;4325;42.520;27.448;2022-11-02T08:16:55;17.80;;;11.80;;
8574;SDS011;4325;42.520;27.448;2022-11-02T08:19:22;14.63;;;10.77;;
8574;SDS011;4325;42.520;27.448;2022-11-02T08:21:48;16.07;;;11.03;;
8574;SDS011;4325;42.520;27.448;2022-11-02T08:24:15;15.17;;;11.33;;
8574;SDS011;4325;42.520;27.448;2022-11-02T08:26:42;15.80;;;11.43;;
8574;SDS011;4325;42.520;27.448;2022-11-02T08:29:10;15.20;;;10.63;;
8574;SDS011;4325;42.520;27.448;2022-11-02T08:31:38;24.47;;;10.57;;
8574;SDS011;4325;42.520;27.448;2022-11-02T08:34:05;20.40;;;11.23;;
8574;SDS011;4325;42.520;27.448;2022-11-02T08:36:33;20.97;;;11.03;;
8574;SDS011;4325;42.520;27.448;2022-11-02T08:39:00;14.23;;;10.80;;
8574;SDS011;4325;42.520;27.448;2022-11-02T08:41:27;12.53;;;10.63;;
8574;SDS011;4325;42.520;27.448;2022-11-02T08:43:54;18.73;;;11.03;;
8574;SDS011;4325;42.520;27.448;2022-11-02T08:46:21;17.33;;;10.77;;
8574;SDS011;4325;42.520;27.448;2022-11-02T08:48:50;17.10;;;10.57;;
8574;SDS011;4325;42.520;27.448;2022-11-02T08:51:16;16.50;;;10.90;;
8574;SDS011;4325;42.520;27.448;2022-11-02T08:53:43;15.10;;;11.43;;
8574;SDS011;4325;42.520;27.448;2022-11-02T08:56:10;16.83;;;10.50;;
8574;SDS011;4325;42.520;27.448;2022-11-02T08:58:37;13.63;;;11.43;;
8574;SDS011;4325;42.520;27.448;2022-11-02T09:01:04;13.20;;;10.73;;
8574;SDS011;4325;42.520;27.448;2022-11-02T09:03:31;17.20;;;10.80;;
8574;SDS011;4325;42.520;27.448;2022-11-02T09:05:59;14.93;;;10.17;;
8574;SDS011;4325;42.520;27.448;2022-11-02T09:08:27;20.37;;;10.37;;
8574;SDS011;4325;42.520;27.448;2022-11-02T09:10:56;15.93;;;10.47;;
8574;SDS011;4325;42.520;27.448;2022-11-02T09:13:25;20.60;;;10.60;;
8574;SDS011;4325;42.520;27.448;2022-11-02T09:15:52;12.20;;;10.73;;
8574;SDS011;4325;42.520;27.448;2022-11-02T09:18:22;16.10;;;10.33;;
8574;SDS011;4325;42.520;27.448;2022-11-02T09:20:49;17.20;;;10.60;;
8574;SDS011;4325;42.520;27.448;2022-11-02T09:23:18;16.50;;;10.63;;
8574;SDS011;4325;42.520;27.448;2022-11-02T09:25:45;18.67;;;9.73;;
8574;SDS011;4325;42.520;27.448;2022-11-02T09:28:13;17.67;;;10.43;;
8574;SDS011;4325;42.520;27.448;2022-11-02T09:30:40;12.87;;;10.53;;
8574;SDS011;4325;42.520;27.448;2022-11-02T09:33:08;14.53;;;10.87;;
8574;SDS011;4325;42.520;27.448;2022-11-02T09:35:36;20.57;;;10.60;;
8574;SDS011;4325;42.520;27.448;2022-11-02T09:38:04;15.40;;;10.30;;
8574;SDS011;4325;42.520;27.448;2022-11-02T09:40:34;12.73;;;9.93;;
8574;SDS011;4325;42.520;27.448;2022-11-02T09:43:04;18.60;;;9.47;;
8574;SDS011;4325;42.520;27.448;2022-11-02T09:45:41;17.00;;;9.70;;
8574;SDS011;4325;42.520;27.448;2022-11-02T09:48:17;20.00;;;10.00;;
8574;SDS011;4325;42.520;27.448;2022-11-02T09:50:49;15.23;;;9.63;;
8574;SDS011;4325;42.520;27.448;2022-11-02T09:53:21;16.93;;;9.63;;
8574;SDS011;4325;42.520;27.448;2022-11-02T09:55:54;17.23;;;9.73;;
8574;SDS011;4325;42.520;27.448;2022-11-02T09:58:27;13.63;;;9.70;;
8574;SDS011;4325;42.520;27.448;2022-11-02T10:01:01;14.53;;;9.17;;
8574;SDS011;4325;42.520;27.448;2022-11-02T10:03:41;13.23;;;9.30;;
8574;SDS011;4325;42.520;27.448;2022-11-02T10:06:23;16.63;;;9.00;;
8574;SDS011;4325;42.520;27.448;2022-11-02T10:08:54;18.47;;;9.70;;
8574;SDS011;4325;42.520;27.448;2022-11-02T10:11:35;19.03;;;9.07;;
8574;SDS011;4325;42.520;27.448;2022-11-02T10:14:11;15.50;;;8.07;;
8574;SDS011;4325;42.520;27.448;2022-11-02T10:16:43;16.25;;;8.85;;
8574;SDS011;4325;42.520;27.448;2022-11-02T10:19:18;11.68;;;8.65;;
8574;SDS011;4325;42.520;27.448;2022-11-02T10:21:46;12.83;;;8.30;;
8574;SDS011;4325;42.520;27.448;2022-11-02T10:24:21;12.13;;;8.53;;
8574;SDS011;4325;42.520;27.448;2022-11-02T10:26:52;15.17;;;7.27;;
8574;SDS011;4325;42.520;27.448;2022-11-02T10:29:27;15.07;;;8.23;;
8574;SDS011;4325;42.520;27.448;2022-11-02T10:32:03;14.60;;;7.53;;
8574;SDS011;4325;42.520;27.448;2022-11-02T10:34:31;12.65;;;7.45;;
8574;SDS011;4325;42.520;27.448;2022-11-02T10:37:03;16.98;;;7.00;;
8574;SDS011;4325;42.520;27.448;2022-11-02T10:39:42;9.82;;;6.80;;
8574;SDS011;4325;42.520;27.448;2022-11-02T10:42:26;18.00;;;7.40;;
8574;SDS011;4325;42.520;27.448;2022-11-02T10:45:12;12.93;;;7.25;;
8574;SDS011;4325;42.520;27.448;2022-11-02T10:48:04;15.27;;;7.20;;
8574;SDS011;4325;42.520;27.448;2022-11-02T10:50:43;13.50;;;6.68;;
8574;SDS011;4325;42.520;27.448;2022-11-02T10:53:14;21.02;;;7.18;;
8574;SDS011;4325;42.520;27.448;2022-11-02T10:55:44;12.32;;;7.18;;
8574;SDS011;4325;42.520;27.448;2022-11-02T10:58:16;10.02;;;5.88;;
8574;SDS011;4325;42.520;27.448;2022-11-02T11:00:46;12.27;;;6.85;;
8574;SDS011;4325;42.520;27.448;2022-11-02T11:03:14;15.27;;;6.55;;
8574;SDS011;4325;42.520;27.448;2022-11-02T11:05:52;19.23;;;7.13;;
8574;SDS011;4325;42.520;27.448;2022-11-02T11:08:27;12.75;;;6.55;;
8574;SDS011;4325;42.520;27.448;2022-11-02T11:11:08;12.90;;;6.60;;
8574;SDS011;4325;42.520;27.448;2022-11-02T11:13:38;9.43;;;5.88;;
8574;SDS011;4325;42.520;27.448;2022-11-02T11:16:06;13.52;;;6.80;;
8574;SDS011;4325;42.520;27.448;2022-11-02T11:18:34;19.02;;;6.85;;
8574;SDS011;4325;42.520;27.448;2022-11-02T11:21:03;12.45;;;6.75;;
8574;SDS011;4325;42.520;27.448;2022-11-02T11:23:30;9.85;;;6.57;;
8574;SDS011;4325;42.520;27.448;2022-11-02T11:25:58;11.05;;;6.95;;
8574;SDS011;4325;42.520;27.448;2022-11-02T11:28:27;11.00;;;6.75;;
8574;SDS011;4325;42.520;27.448;2022-11-02T11:31:07;15.18;;;6.88;;
8574;SDS011;4325;42.520;27.448;2022-11-02T11:33:43;14.25;;;5.95;;
8574;SDS011;4325;42.520;27.448;2022-11-02T11:36:19;21.85;;;6.90;;
8574;SDS011;4325;42.520;27.448;2022-11-02T11:38:50;11.48;;;6.43;;
8574;SDS011;4325;42.520;27.448;2022-11-02T11:41:20;18.10;;;7.00;;
8574;SDS011;4325;42.520;27.448;2022-11-02T11:43:48;13.20;;;6.80;;
8574;SDS011;4325;42.520;27.448;2022-11-02T11:46:19;11.93;;;6.70;;
8574;SDS011;4325;42.520;27.448;2022-11-02T11:48:47;10.80;;;6.55;;
8574;SDS011;4325;42.520;27.448;2022-11-02T11:51:23;10.40;;;6.22;;
8574;SDS011;4325;42.520;27.448;2022-11-02T11:54:03;20.25;;;6.35;;
8574;SDS011;4325;42.520;27.448;2022-11-02T11:56:43;15.25;;;6.03;;
8574;SDS011;4325;42.520;27.448;2022-11-02T12:02:19;15.27;;;7.22;;
8574;SDS011;4325;42.520;27.448;2022-11-02T12:04:49;11.75;;;6.40;;
8574;SDS011;4325;42.520;27.448;2022-11-02T12:10:08;9.95;;;6.30;;
8574;SDS011;4325;42.520;27.448;2022-11-02T12:12:43;13.45;;;6.82;;
8574;SDS011;4325;42.520;27.448;2022-11-02T12:15:26;17.08;;;7.07;;
8574;SDS011;4325;42.520;27.448;2022-11-02T12:18:12;17.35;;;7.18;;
8574;SDS011;4325;42.520;27.448;2022-11-02T12:20:55;18.50;;;6.07;;
8574;SDS011;4325;42.520;27.448;2022-11-02T12:23:38;10.70;;;6.45;;
8574;SDS011;4325;42.520;27.448;2022-11-02T12:26:19;11.13;;;6.72;;
8574;SDS011;4325;42.520;27.448;2022-11-02T12:29:02;11.88;;;6.28;;
8574;SDS011;4325;42.520;27.448;2022-11-02T12:31:40;17.48;;;7.22;;
8574;SDS011;4325;42.520;27.448;2022-11-02T12:34:18;10.52;;;6.20;;
8574;SDS011;4325;42.520;27.448;2022-11-02T12:36:58;15.45;;;6.65;;
8574;SDS011;4325;42.520;27.448;2022-11-02T12:39:38;12.80;;;6.75;;
8574;SDS011;4325;42.520;27.448;2022-11-02T12:42:23;9.82;;;6.10;;
8574;SDS011;4325;42.520;27.448;2022-11-02T12:44:57;19.90;;;7.22;;
8574;SDS011;4325;42.520;27.448;2022-11-02T12:47:40;12.90;;;6.60;;
8574;SDS011;4325;42.520;27.448;2022-11-02T12:50:20;17.50;;;6.50;;
8574;SDS011;4325;42.520;27.448;2022-11-02T12:53:03;15.68;;;6.75;;
8574;SDS011;4325;42.520;27.448;2022-11-02T12:55:44;10.15;;;6.63;;
8574;SDS011;4325;42.520;27.448;2022-11-02T12:58:15;15.02;;;7.38;;
8574;SDS011;4325;42.520;27.448;2022-11-02T13:00:46;18.85;;;6.43;;
8574;SDS011;4325;42.520;27.448;2022-11-02T13:03:21;16.50;;;7.15;;
8574;SDS011;4325;42.520;27.448;2022-11-02T13:05:59;16.20;;;7.20;;
8574;SDS011;4325;42.520;27.448;2022-11-02T13:08:33;14.00;;;6.65;;
8574;SDS011;4325;42.520;27.448;2022-11-02T13:11:05;14.07;;;7.55;;
8574;SDS011;4325;42.520;27.448;2022-11-02T13:13:37;12.75;;;6.32;;
8574;SDS011;4325;42.520;27.448;2022-11-02T13:16:08;14.77;;;7.03;;
8574;SDS011;4325;42.520;27.448;2022-11-02T13:18:37;16.98;;;6.55;;
8574;SDS011;4325;42.520;27.448;2022-11-02T13:21:11;15.70;;;6.50;;
8574;SDS011;4325;42.520;27.448;2022-11-02T13:23:42;17.65;;;6.70;;
8574;SDS011;4325;42.520;27.448;2022-11-02T13:26:14;16.67;;;7.05;;
8574;SDS011;4325;42.520;27.448;2022-11-02T13:28:51;10.45;;;5.85;;
8574;SDS011;4325;42.520;27.448;2022-11-02T13:31:23;20.65;;;6.75;;
8574;SDS011;4325;42.520;27.448;2022-11-02T13:33:55;15.55;;;5.93;;
8574;SDS011;4325;42.520;27.448;2022-11-02T13:36:26;16.65;;;6.63;;
8574;SDS011;4325;42.520;27.448;2022-11-02T13:38:55;17.67;;;6.63;;
8574;SDS011;4325;42.520;27.448;2022-11-02T13:41:38;14.02;;;6.30;;
8574;SDS011;4325;42.520;27.448;2022-11-02T13:44:24;12.15;;;6.28;;
8574;SDS011;4325;42.520;27.448;2022-11-02T13:50:06;19.30;;;7.00;;
8574;SDS011;4325;42.520;27.448;2022-11-02T13:52:39;23.10;;;6.75;;
8574;SDS011;4325;42.520;27.448;2022-11-02T13:55:14;16.75;;;6.35;;
8574;SDS011;4325;42.520;27.448;2022-11-02T13:57:45;12.43;;;6.40;;
8574;SDS011;4325;42.520;27.448;2022-11-02T14:00:27;21.23;;;7.17;;
8574;SDS011;4325;42.520;27.448;2022-11-02T14:03:00;17.63;;;6.87;;
8574;SDS011;4325;42.520;27.448;2022-11-02T14:05:32;18.07;;;6.50;;
8574;SDS011;4325;42.520;27.448;2022-11-02T14:08:07;19.37;;;6.70;;
8574;SDS011;4325;42.520;27.448;2022-11-02T14:10:41;18.37;;;7.10;;
8574;SDS011;4325;42.520;27.448;2022-11-02T14:13:10;18.33;;;6.60;;
8574;SDS011;4325;42.520;27.448;2022-11-02T14:15:39;15.80;;;6.60;;
8574;SDS011;4325;42.520;27.448;2022-11-02T14:18:11;15.63;;;6.77;;
8574;SDS011;4325;42.520;27.448;2022-11-02T14:20:56;19.90;;;7.17;;
8574;SDS011;4325;42.520;27.448;2022-11-02T14:29:35;18.60;;;7.20;;
8574;SDS011;4325;42.520;27.448;2022-11-02T14:32:14;19.80;;;8.03;;
8574;SDS011;4325;42.520;27.448;2022-11-02T14:34:54;18.23;;;7.70;;
8574;SDS011;4325;42.520;27.448;2022-11-02T14:40:28;26.10;;;7.83;;
8574;SDS011;4325;42.520;27.448;2022-11-02T14:43:07;19.63;;;8.00;;
8574;SDS011;4325;42.520;27.448;2022-11-02T14:48:41;19.60;;;7.60;;
8574;SDS011;4325;42.520;27.448;2022-11-02T14:51:12;24.47;;;8.57;;
8574;SDS011;4325;42.520;27.448;2022-11-02T14:53:42;21.20;;;9.17;;
8574;SDS011;4325;42.520;27.448;2022-11-02T14:56:11;23.33;;;10.40;;
8574;SDS011;4325;42.520;27.448;2022-11-02T14:58:38;33.47;;;12.73;;
8574;SDS011;4325;42.520;27.448;2022-11-02T15:01:13;28.87;;;9.77;;
8574;SDS011;4325;42.520;27.448;2022-11-02T15:03:42;36.23;;;9.07;;
8574;SDS011;4325;42.520;27.448;2022-11-02T15:06:13;21.27;;;9.00;;
8574;SDS011;4325;42.520;27.448;2022-11-02T15:08:49;28.00;;;8.30;;
8574;SDS011;4325;42.520;27.448;2022-11-02T15:20:33;24.53;;;9.53;;
8574;SDS011;4325;42.520;27.448;2022-11-02T15:23:02;34.20;;;9.63;;
8574;SDS011;4325;42.520;27.448;2022-11-02T15:25:39;29.90;;;10.27;;
8574;SDS011;4325;42.520;27.448;2022-11-02T15:28:10;32.17;;;10.13;;
8574;SDS011;4325;42.520;27.448;2022-11-02T15:30:40;23.37;;;8.20;;
8574;SDS011;4325;42.520;27.448;2022-11-02T15:33:15;16.80;;;9.57;;
8574;SDS011;4325;42.520;27.448;2022-11-02T15:35:45;16.37;;;8.17;;
8574;SDS011;4325;42.520;27.448;2022-11-02T15:38:13;21.23;;;8.17;;